Flight Track Log - Related Links

Times and Time Zones

All times are in EST time to prevent confusion due to time zone crossing. See the BJS339 flight status page for this flight to view local times or setup timezone preferences in your user account.

Time Position Orientation Groundspeed Altitude Reporting Facility
EST Latitude Longitude Course Direction KTS MPH feet Rate Location/Type
Sat 11:41:46 AM 26.0728 -80.1436 77° East 161 185 700  Level Miami Center
Sat 11:42:11 AM 26.0775 -80.1206 77° East 207 238 1,600 2,512 Climbing Miami Center
Sat 11:43:12 AM 26.0853 -80.0422 84° East 261 300 4,300 1,833 Climbing Miami Center
Sat 11:43:59 AM 26.0994 -79.9753 77° East 263 303 4,900 1,161 Climbing Miami Center
Sat 11:44:14 AM 26.0997 -79.9569 89° East 264 304 5,500 2,300 Climbing Miami Center
Sat 11:44:59 AM 26.1011 -79.8944 89° East 272 313 7,200 2,323 Climbing Miami Center
Sat 11:45:16 AM 26.0931 -79.8736 113° Southeast 278 320 7,900 2,100 Climbing Miami Center
Sat 11:45:59 AM 26.0839 -79.8083 99° East 286 329 9,300 2,164 Climbing Miami Center
Sat 11:46:17 AM 26.0739 -79.7850 116° Southeast 296 341 10,100 2,000 Climbing Miami Center
Sat 11:46:59 AM 26.0628 -79.7131 100° East 330 380 11,300 1,882 Climbing Miami Center
Sat 11:47:59 AM 26.0461 -79.6133 101° East 336 387 13,300 2,150 Climbing Miami Center
Sat 11:48:59 AM 26.0228 -79.5086 104° East 336 387 15,600 2,250 Climbing Miami Center
Sat 11:49:59 AM 25.9978 -79.3994 104° East 347 399 17,800 2,300 Climbing Miami Center
Sat 11:50:59 AM 25.9767 -79.2789 101° East 380 437 20,200 2,150 Climbing Miami Center
Sat 11:51:59 AM 25.9597 -79.1631 99° East 380 437 22,100 1,950 Climbing Miami Center
Sat 11:52:59 AM 25.9367 -79.0400 102° East 393 452 24,100 1,800 Climbing Miami Center
Sat 11:53:59 AM 25.9111 -78.9150 103° East 399 459 25,700 1,500 Climbing Miami Center
Sat 11:54:59 AM 25.8817 -78.7875 104° East 412 474 27,100 1,400 Climbing Miami Center
Sat 11:55:59 AM 25.8603 -78.6556 100° East 422 486 28,500 1,400 Climbing Miami Center
Sat 11:56:59 AM 25.8117 -78.5322 114° Southeast 429 494 29,900 1,200 Climbing Miami Center
Sat 11:57:59 AM 25.7481 -78.4161 121° Southeast 435 501 30,900 950 Climbing Miami Center
Sat 11:58:59 AM 25.6844 -78.2931 120° Southeast 445 512 31,800 800 Climbing Miami Center
Sat 11:59:59 AM 25.6269 -78.1864 121° Southeast 450 518 32,500 800 Climbing Miami Center
Sat 12:00:59 PM 25.5611 -78.0658 121° Southeast 455 524 33,400 950 Climbing Miami Center
Sat 12:01:59 PM 25.4953 -77.9431 121° Southeast 455 524 34,400 1,000 Climbing Miami Center
Sat 12:02:59 PM 25.4314 -77.8253 121° Southeast 450 518 35,400 1,000 Climbing Miami Center
Sat 12:03:59 PM 25.3653 -77.7028 121° Southeast 450 518 36,400 1,000 Climbing Miami Center
Sat 12:04:59 PM 25.2989 -77.5828 121° Southeast 450 518 37,400 800 Climbing Miami Center
Sat 12:05:59 PM 25.2328 -77.4514 119° Southeast 450 518 38,000 550 Climbing Miami Center
Sat 12:06:59 PM 25.1661 -77.3294 121° Southeast 455 524 38,500 500 Climbing Miami Center
Sat 12:07:59 PM 25.0956 -77.2100 123° Southeast 455 524 39,000 250 Climbing Miami Center
Sat 12:08:59 PM 25.0267 -77.0881 122° Southeast 460 529 39,000  Level Miami Center
Sat 12:09:59 PM 24.9600 -76.9664 121° Southeast 460 529 39,000  Level Miami Center
Sat 12:10:59 PM 24.8889 -76.8381 121° Southeast 465 535 39,000  Level Miami Center
Sat 12:11:59 PM 24.8178 -76.7122 122° Southeast 476 548 39,000  Level Miami Center
Sat 12:12:59 PM 24.7467 -76.5864 122° Southeast 481 554 39,000  Level Miami Center
Sat 12:13:59 PM 24.6858 -76.4744 121° Southeast 481 554 39,000  Level Miami Center
Sat 12:14:59 PM 24.6122 -76.3467 122° Southeast 481 554 39,000  Level Miami Center
Sat 12:15:59 PM 24.5428 -76.2236 122° Southeast 476 548 39,000  Level Miami Center
Sat 12:16:59 PM 24.4733 -76.1008 122° Southeast 476 548 39,000  Level Miami Center
Sat 12:17:59 PM 24.4014 -75.9711 121° Southeast 481 554 39,000  Level Miami Center
Sat 12:18:59 PM 24.3317 -75.8486 122° Southeast 481 554 39,000  Level Miami Center
Sat 12:19:59 PM 24.2617 -75.7214 121° Southeast 481 554 39,000  Level Miami Center
Sat 12:20:59 PM 24.1875 -75.5944 123° Southeast 481 554 39,000  Level Miami Center
Sat 12:21:59 PM 24.1111 -75.4586 122° Southeast 476 548 39,000  Level Miami Center
Sat 12:22:59 PM 24.0367 -75.3322 123° Southeast 476 548 39,000  Level Miami Center
Sat 12:23:59 PM 23.9664 -75.2081 122° Southeast 476 548 39,000  Level Miami Center
Sat 12:24:59 PM 23.8961 -75.0861 122° Southeast 476 548 39,000  Level Miami Center
Sat 12:25:59 PM 23.8236 -74.9622 123° Southeast 476 548 39,000  Level Miami Center
Sat 12:26:59 PM 23.7531 -74.8383 128° Southeast 476 548 39,000  Level Miami Center
Sat 12:27:00 PM 23.7475 -74.8544 128° Southeast  Level FlightAware Approximate
Sat 12:27:59 PM 23.6844 -74.7194 122° Southeast 476 548 39,000  Level Miami Center
Sat 12:28:59 PM 23.6117 -74.5981 123° Southeast 476 548 39,000  Level Miami Center
Sat 12:29:59 PM 23.5386 -74.4769 123° Southeast 476 548 39,000  Level Miami Center
Sat 12:30:59 PM 23.4700 -74.3606 123° Southeast 476 548 39,000  Level Miami Center
Sat 12:32:59 PM 23.3300 -74.1214 123° Southeast 471 542 39,000  Level Miami Center
Sat 12:34:59 PM 23.1939 -73.8825 122° Southeast 471 542 39,000  Level Miami Center
Sat 12:35:59 PM 23.1183 -73.7667 125° Southeast 471 542 39,000  Level Miami Center
Sat 12:36:59 PM 23.0489 -73.6464 122° Southeast 471 542 39,000  Level Miami Center
Sat 12:37:59 PM 22.9817 -73.5286 122° Southeast 471 542 39,000  Level Miami Center
Sat 12:38:59 PM 22.9078 -73.4064 123° Southeast 476 548 39,000  Level Miami Center
Sat 12:39:00 PM 22.9239 -73.4726 123° Southeast  Level FlightAware Approximate
Sat 12:39:59 PM 22.8450 -73.3114 126° Southeast 476 548 39,000  Level Miami Center
Sat 12:40:00 PM 22.8572 -73.3610 123° Southeast  Level FlightAware Approximate
Sat 12:40:59 PM 22.7689 -73.1806 122° Southeast 476 548 39,000  Level Miami Center
Sat 12:41:59 PM 22.7011 -73.0586 121° Southeast 476 548 39,000  Level Miami Center
Sat 12:42:59 PM 22.6314 -72.9414 123° Southeast 469 540 39,000  Level Miami Center
Sat 12:43:59 PM 22.5592 -72.8222 123° Southeast 469 540 39,000  Level Miami Center
Sat 12:44:59 PM 22.4850 -72.7056 125° Southeast 475 547 39,000  Level Miami Center
Sat 12:45:59 PM 22.4150 -72.5864 122° Southeast 475 547 39,000  Level Miami Center
Sat 12:46:59 PM 22.3428 -72.4678 123° Southeast 475 547 39,000  Level Miami Center
Sat 12:47:59 PM 22.2725 -72.3511 123° Southeast 475 547 39,000  Level Miami Center
Sat 12:48:59 PM 22.2000 -72.2325 123° Southeast 475 547 39,000  Level Miami Center
Sat 12:49:59 PM 22.1253 -72.1142 124° Southeast 475 547 39,000  Level Miami Center
Sat 12:50:59 PM 22.0569 -71.9981 122° Southeast 475 547 39,000  Level Miami Center
Sat 12:51:59 PM 21.9842 -71.8775 123° Southeast 475 547 39,000  Level Miami Center
Sat 12:52:59 PM 21.9114 -71.7597 124° Southeast 475 547 39,000  Level Miami Center
Sat 12:53:59 PM 21.8389 -71.6439 124° Southeast 475 547 39,000  Level Miami Center
Sat 12:54:59 PM 21.7678 -71.5261 123° Southeast 475 547 39,000  Level Miami Center
Sat 12:55:59 PM 21.6969 -71.4086 123° Southeast 475 547 39,000  Level Miami Center
Sat 12:56:59 PM 21.6239 -71.2911 124° Southeast 475 547 39,000  Level Miami Center
Sat 12:57:59 PM 21.5550 -71.1733 122° Southeast 470 541 39,000  Level Miami Center
Sat 12:58:59 PM 21.4753 -71.0519 125° Southeast 470 541 39,000  Level Miami Center
Sat 12:59:59 PM 21.3994 -70.9239 122° Southeast 451 519 39,000  Level Miami Center
Sat 01:00:59 PM 21.3261 -70.8092 124° Southeast 461 531 39,000  Level Miami Center
Sat 01:01:59 PM 21.2528 -70.6947 124° Southeast 461 531 39,000  Level Miami Center
Sat 01:02:59 PM 21.1814 -70.5800 124° Southeast 461 531 39,000  Level Miami Center
Sat 01:03:59 PM 21.1100 -70.4658 124° Southeast 461 531 39,000  Level Miami Center
Sat 01:04:59 PM 21.0364 -70.3492 124° Southeast 466 536 39,000  Level Miami Center
Sat 01:05:59 PM 20.9625 -70.2308 124° Southeast 476 548 39,000  Level Miami Center
Sat 01:06:59 PM 20.8886 -70.1125 124° Southeast 476 548 39,000  Level Miami Center
Sat 01:07:59 PM 20.8147 -69.9964 124° Southeast 476 548 39,000  Level Miami Center
Sat 01:08:59 PM 20.7408 -69.8806 124° Southeast 476 548 39,000  Level Miami Center
Sat 01:09:59 PM 20.6667 -69.7625 124° Southeast 476 548 39,000  Level Miami Center
Sat 01:10:59 PM 20.5925 -69.6447 124° Southeast 476 548 39,000  Level Miami Center
Sat 01:11:59 PM 20.5161 -69.5272 125° Southeast 476 548 39,000  Level Miami Center
Sat 01:12:59 PM 20.4419 -69.4117 124° Southeast 476 548 39,000  Level Miami Center
Sat 01:13:59 PM 20.3675 -69.2922 124° Southeast 476 548 39,000  Level Miami Center
Sat 01:14:59 PM 20.2931 -69.1750 124° Southeast 476 548 39,000  Level Miami Center
Sat 01:15:59 PM 20.2167 -69.0600 125° Southeast 476 548 39,000  Level Miami Center
Sat 01:16:59 PM 20.1442 -68.9428 123° Southeast 476 548 39,000  Level Miami Center
Sat 01:17:59 PM 20.0675 -68.8306 126° Southeast 476 548 39,000  Level Miami Center
Sat 01:18:59 PM 19.9928 -68.7139 124° Southeast 476 548 39,000  Level Miami Center
Sat 01:19:59 PM 19.9222 -68.5969 123° Southeast 476 548 39,000  Level Miami Center
Sat 01:20:59 PM 19.8475 -68.4847 125° Southeast 476 548 39,000  Level Miami Center
Sat 01:21:59 PM 19.7728 -68.3683 124° Southeast 476 548 39,000  Level Miami Center
Sat 01:22:46 PM 19.7167 -68.3000 131° Southeast 470 541 39,000  Level San Juan Center
Sat 01:23:46 PM 19.6333 -68.1833 127° Southeast 470 541 39,000  Level San Juan Center
Sat 01:24:46 PM 19.5667 -68.0667 121° Southeast 470 541 39,000  Level San Juan Center
Sat 01:25:46 PM 19.4667 -67.9833 142° Southeast 460 529 39,000  Level San Juan Center
Sat 01:26:46 PM 19.3500 -67.9000 146° Southeast 470 541 39,000  Level San Juan Center
Sat 01:27:46 PM 19.2500 -67.8167 142° Southeast 470 541 39,000  Level San Juan Center
Sat 01:28:46 PM 19.1500 -67.7167 137° Southeast 470 541 39,000  Level San Juan Center
Sat 01:29:47 PM 19.0500 -67.6333 142° Southeast 460 529 39,000  Level San Juan Center
Sat 01:30:47 PM 18.9333 -67.5333 141° Southeast 470 541 39,000  Level San Juan Center
Sat 01:31:47 PM 18.8333 -67.4333 137° Southeast 460 529 39,000  Level San Juan Center
Sat 01:32:47 PM 18.7333 -67.3500 142° Southeast 460 529 39,000  Level San Juan Center
Sat 01:33:47 PM 18.6500 -67.2667 137° Southeast 460 529 39,000  Level San Juan Center
Sat 01:34:47 PM 18.5500 -67.1833 142° Southeast 460 529 39,000  Level San Juan Center
Sat 01:35:47 PM 18.4500 -67.1000 142° Southeast 460 529 39,000  Level San Juan Center
Sat 01:36:47 PM 18.3500 -67.0000 136° Southeast 460 529 39,000  Level San Juan Center
Sat 01:37:48 PM 18.2500 -66.9167 142° Southeast 460 529 39,000  Level San Juan Center
Sat 01:38:48 PM 18.1500 -66.8333 142° Southeast 460 529 39,000  Level San Juan Center
Sat 01:39:48 PM 18.0500 -66.7500 142° Southeast 470 541 39,000  Level San Juan Center
Sat 01:40:48 PM 17.9500 -66.6667 142° Southeast 460 529 39,000  Level San Juan Center
Sat 01:41:48 PM 17.8500 -66.5833 142° Southeast 460 529 39,000  Level San Juan Center
Sat 01:42:48 PM 17.7500 -66.4833 136° Southeast 460 529 39,000  Level San Juan Center
Sat 01:43:48 PM 17.6500 -66.4000 142° Southeast 460 529 39,000  Level San Juan Center
Sat 01:44:48 PM 17.5500 -66.3167 142° Southeast 460 529 39,000  Level San Juan Center
Sat 01:45:49 PM 17.4500 -66.2333 142° Southeast 460 529 39,000  Level San Juan Center
Sat 01:46:49 PM 17.3667 -66.1500 136° Southeast 460 529 39,000  Level San Juan Center
Sat 01:47:49 PM 17.2667 -66.0667 141° Southeast 460 529 39,000  Level San Juan Center
Sat 01:48:49 PM 17.1667 -65.9833 141° Southeast 460 529 39,000  Level San Juan Center
Sat 01:49:49 PM 17.0667 -65.9000 141° Southeast 460 529 39,000  Level San Juan Center
Sat 01:50:49 PM 16.9667 -65.8167 141° Southeast 460 529 39,000  Level San Juan Center
Sat 01:51:49 PM 16.8667 -65.7167 136° Southeast 460 529 39,000  Level San Juan Center
Sat 01:52:50 PM 16.7667 -65.6333 141° Southeast 460 529 39,000  Level San Juan Center
Sat 01:53:50 PM 16.6667 -65.5500 141° Southeast 460 529 39,000  Level San Juan Center
Sat 01:54:50 PM 16.5667 -65.4667 141° Southeast 470 541 39,000  Level San Juan Center
Sat 01:55:50 PM 16.4667 -65.3833 141° Southeast 470 541 39,000  Level San Juan Center
Sat 01:56:50 PM 16.3667 -65.3000 141° Southeast 460 529 39,000  Level San Juan Center
Sat 01:57:50 PM 16.2667 -65.2167 141° Southeast 470 541 39,000  Level San Juan Center
Sat 01:58:50 PM 16.1500 -65.1167 141° Southeast 480 552 39,000  Level San Juan Center
Sat 01:59:50 PM 16.0500 -65.0333 141° Southeast 470 541 39,000  Level San Juan Center
Sat 02:00:50 PM 15.9500 -64.9500 141° Southeast 460 529 39,000  Level San Juan Center
Sat 02:01:50 PM 15.8333 -64.8667 146° Southeast 470 541 39,000  Level San Juan Center
Sat 02:02:51 PM 15.7667 -64.7833 130° Southeast 450 518 39,000  Level San Juan Center
Sat 02:03:51 PM 15.6667 -64.7000 141° Southeast 470 541 39,000  Level San Juan Center
Sat 02:04:51 PM 15.5667 -64.6167 141° Southeast 470 541 39,000  Level San Juan Center
Sat 02:05:51 PM 15.4333 -64.5167 144° Southeast 490 564 39,000  Level San Juan Center
Sat 02:06:51 PM 15.3500 -64.4500 142° Southeast 460 529 39,000  Level San Juan Center
Sat 02:07:51 PM 15.2500 -64.3500 136° Southeast 480 552 39,000  Level San Juan Center
Sat 02:08:51 PM 15.1500 -64.2667 141° Southeast 470 541 39,000  Level San Juan Center
Sat 02:09:51 PM 15.0500 -64.1833 141° Southeast 480 552 39,000  Level San Juan Center
Sat 02:11:00 PM 15.0377 -64.0412 95° East  Level FlightAware Approximate
Sat 02:18:00 PM 14.7028 -63.2452 114° Southeast  Level Estimated
Sat 02:19:00 PM 14.6575 -63.1304 112° Southeast  Level FlightAware Approximate
Sat 02:20:00 PM 14.6122 -63.0158 112° Southeast  Level FlightAware Approximate
Sat 02:21:00 PM 14.5668 -62.9011 112° Southeast  Level FlightAware Approximate
Sat 02:22:00 PM 14.5213 -62.7865 112° Southeast  Level FlightAware Approximate
Sat 02:23:00 PM 14.4758 -62.6720 112° Southeast  Level FlightAware Approximate
Sat 02:24:00 PM 14.4302 -62.5575 112° Southeast  Level FlightAware Approximate
Sat 02:25:00 PM 14.3846 -62.4431 112° Southeast  Level FlightAware Approximate
Sat 02:26:00 PM 14.3389 -62.3287 112° Southeast  Level FlightAware Approximate
Sat 02:27:00 PM 14.2932 -62.2144 112° Southeast  Level FlightAware Approximate
Sat 02:28:00 PM 14.2474 -62.1001 112° Southeast  Level FlightAware Approximate
Sat 02:29:00 PM 14.2016 -61.9858 112° Southeast  Level FlightAware Approximate
Sat 02:30:00 PM 14.1557 -61.8716 113° Southeast  Level FlightAware Approximate
Sat 02:31:00 PM 14.1097 -61.7574 113° Southeast  Level FlightAware Approximate
Sat 02:32:00 PM 14.0592 -61.6454 115° Southeast  Level Estimated
Sat 02:33:00 PM 14.0083 -61.5335 115° Southeast  Level FlightAware Approximate
Sat 02:34:00 PM 13.9574 -61.4217 115° Southeast  Level FlightAware Approximate
Sat 02:35:00 PM 13.9064 -61.3099 115° Southeast  Level FlightAware Approximate
Sat 02:36:00 PM 13.8554 -61.1982 115° Southeast  Level FlightAware Approximate
Sat 02:37:00 PM 13.8047 -61.0863 115° Southeast  Level Estimated
Sat 02:38:00 PM 13.7537 -60.9746 115° Southeast  Level FlightAware Approximate
Sat 02:39:00 PM 13.7027 -60.8629 115° Southeast  Level FlightAware Approximate
Sat 02:40:00 PM 13.6517 -60.7513 115° Southeast  Level FlightAware Approximate
Sat 02:41:00 PM 13.6006 -60.6398 115° Southeast  Level FlightAware Approximate
Sat 02:42:00 PM 13.5494 -60.5282 115° Southeast  Level FlightAware Approximate
Sat 02:43:00 PM 13.4982 -60.4168 115° Southeast  Level FlightAware Approximate
Sat 02:44:00 PM 13.4470 -60.3054 115° Southeast  Level FlightAware Approximate
Sat 02:45:00 PM 13.3957 -60.1940 115° Southeast  Level FlightAware Approximate
Sat 02:46:00 PM 13.3443 -60.0826 115° Southeast  Level FlightAware Approximate
Sat 02:47:00 PM 13.2929 -59.9714 115° Southeast  Level FlightAware Approximate
Sat 02:48:00 PM 13.2415 -59.8601 115° Southeast  Level FlightAware Approximate
Sat 02:49:00 PM 13.1900 -59.7490 115° Southeast  Level FlightAware Approximate
Sat 02:50:00 PM 13.1384 -59.6378 115° Southeast  Level FlightAware Approximate
Sat 02:51:00 PM 13.0868 -59.5267 115° Southeast  Level FlightAware Approximate
Sat 02:52:00 PM 13.0746 -59.4925 90° East  Level Estimated
Sat 02:53:00 PM 13.0746 -59.4925 90° East  Level Estimated
Sat 02:54:00 PM 13.0746 -59.4925 90° East  Level Estimated
Sat 02:55:00 PM 13.0746 -59.4925 90° East  Level Estimated
Sat 02:56:00 PM 13.0746 -59.4925 90° East  Level Estimated
Sat 02:57:00 PM 13.0746 -59.4925 90° East  Level Estimated
Sat 02:58:00 PM 13.0746 -59.4925 90° East  Level Estimated
Sat 02:59:00 PM 13.0746 -59.4925 90° East  Level Estimated
Sat 03:00:00 PM 13.0746 -59.4925 90° East  Level Estimated
Sat 03:01:00 PM 13.0746 -59.4925 90° East  Level Estimated
Sat 03:02:00 PM 13.0746 -59.4925 90° East  Level Estimated
Sat 03:03:00 PM 13.0746 -59.4925 90° East  Level Estimated
Sat 03:04:00 PM 13.0746 -59.4925 90° East  Level Estimated
Sat 03:05:00 PM 13.0746 -59.4925 90° East  Level Estimated
Sat 03:06:00 PM 13.0746 -59.4925 90° East  Level Estimated
Sat 03:07:00 PM 13.0746 -59.4925 90° East  Level Estimated
Sat 03:08:00 PM 13.0746 -59.4925 90° East  Level Estimated
Sat 03:09:00 PM 13.0746 -59.4925 90° East  Level Estimated
Sat 03:10:00 PM 13.0746 -59.4925 90° East  Level Estimated
Sat 03:11:00 PM 13.0746 -59.4925 90° East  Level Estimated
Sat 03:12:00 PM 13.0746 -59.4925 90° East  Level Estimated
Sat 03:13:00 PM 13.0746 -59.4925 90° East  Level Estimated
Sat 03:14:00 PM 13.0746 -59.4925 90° East  Level Estimated
Sat 03:15:00 PM 13.0746 -59.4925 90° East  Level Estimated

Login

Don't have an account? Register now (free) for customized features, flight alerts, and more!